Oregon, Ohio
Current Conditions -  °F | °C
As of 8:53 AM on Monday 20 Oct 2014 (Local Time) from KTDZ Reporting Station
Overcast Overcast  
Wind Chill: 50°   Ceiling: 8500
Heat Index: 50°   Visibility: 10mi
Dew Point: 43°   Wind: 10mph
Humidity: 77%   Direction: 190°S
Pressure: 29.89"   Gusts: NA
Location:  41.65°N, 83.42°W
Report Text: KTDZ 201253Z AUTO 19009KT 10SM OVC085 10/06 A2989 RMK AO2 SLP123 T01000061 TSNO
Loading
Personal Weather Stations






























Interactive Weather Map
Tropical Storm Tracking
New forecast layout! Learn more

10-Day Weather Forecast

Advertisements
Track Severe Weather on mobile